Portada
METAR-TAF:

METAR-TAF

Aeroports :

Bellefontaine, Ohio, Estats Units d'Amèrica

latitud: 40-22-20N, longitud: 083-49-08W, altitud: 342 m

Observació

L'informe es va fer fa 17 minuts, a les 08:35 UTC
Vent 12 kt del Sud-Oest amb ràfegues de 17 kt
Temperatura 27°C
Humitat 51%
Pressió 1009 hPa
Visibilitat: 16.1 km
Escasses núvols a una alçada de 11000 ft

METAR: KEDJ 230835Z AUTO 23012G17KT 10SM FEW110 27/16 A2980 RMK A01

Hora: 04:52 (08:52 UTC)


TAF: manca

Observacions i pronòstics meteorològics de més de 4000 aeroports (METAR i TAF).

Les estacions disponibles són els punts grocs i vermells al mapa.

Posi el ratolí al punt desitjat per veure el nom de l'estació.

Feu clic per veure les observacions i els pronòstics meteorològics.

Per canviar el mapa: feu clic els botons verds amb una creu de color negre per apropar; al botó verd amb un guió per allunyar la imatge; o en les fletxes verdes per a mapes adjacents.


METAR-TAF: